sensor_id;sensor_type;location;lat;lon;timestamp;pressure;altitude;pressure_sealevel;temperature;humidity
8637;BME280;4356;49.068;8.658;2023-06-22T00:01:58;99837.63;;;28.83;42.87
8637;BME280;4356;49.068;8.658;2023-06-22T00:04:23;99847.81;;;28.88;42.62
8637;BME280;4356;49.068;8.658;2023-06-22T00:06:49;99852.81;;;28.86;42.61
8637;BME280;4356;49.068;8.658;2023-06-22T00:09:14;99849.53;;;28.84;42.65
8637;BME280;4356;49.068;8.658;2023-06-22T00:11:39;99860.59;;;28.84;42.72
8637;BME280;4356;49.068;8.658;2023-06-22T00:14:05;99854.28;;;28.78;42.93
8637;BME280;4356;49.068;8.658;2023-06-22T00:16:34;99861.13;;;28.81;42.90
8637;BME280;4356;49.068;8.658;2023-06-22T00:19:00;99858.38;;;28.81;42.84
8637;BME280;4356;49.068;8.658;2023-06-22T00:21:26;99856.75;;;28.80;42.90
8637;BME280;4356;49.068;8.658;2023-06-22T00:23:52;99857.03;;;28.78;42.96
8637;BME280;4356;49.068;8.658;2023-06-22T00:26:17;99857.03;;;28.78;42.87
8637;BME280;4356;49.068;8.658;2023-06-22T00:28:43;99868.69;;;28.75;42.76
8637;BME280;4356;49.068;8.658;2023-06-22T00:31:08;99877.78;;;28.76;42.83
8637;BME280;4356;49.068;8.658;2023-06-22T00:33:34;99897.16;;;28.76;42.99
8637;BME280;4356;49.068;8.658;2023-06-22T00:35:59;99930.09;;;28.72;42.86
8637;BME280;4356;49.068;8.658;2023-06-22T00:38:24;100010.00;;;28.74;42.70
8637;BME280;4356;49.068;8.658;2023-06-22T00:40:50;100088.59;;;28.73;42.95
8637;BME280;4356;49.068;8.658;2023-06-22T00:43:15;100140.88;;;28.69;42.86
8637;BME280;4356;49.068;8.658;2023-06-22T00:45:41;100143.63;;;28.69;43.37
8637;BME280;4356;49.068;8.658;2023-06-22T00:48:07;100034.66;;;28.70;42.98
8637;BME280;4356;49.068;8.658;2023-06-22T00:50:33;99869.00;;;28.69;42.96
8637;BME280;4356;49.068;8.658;2023-06-22T00:53:03;99876.22;;;28.65;43.03
8637;BME280;4356;49.068;8.658;2023-06-22T00:55:38;99920.75;;;28.63;42.94
8637;BME280;4356;49.068;8.658;2023-06-22T00:58:05;99902.84;;;28.61;43.20
8637;BME280;4356;49.068;8.658;2023-06-22T01:00:33;99895.94;;;28.58;43.25
8637;BME280;4356;49.068;8.658;2023-06-22T01:02:58;99892.88;;;28.60;43.09
8637;BME280;4356;49.068;8.658;2023-06-22T01:05:24;99885.16;;;28.57;42.90
8637;BME280;4356;49.068;8.658;2023-06-22T01:07:54;99910.59;;;28.59;43.03
8637;BME280;4356;49.068;8.658;2023-06-22T01:10:30;99921.66;;;28.59;43.13
8637;BME280;4356;49.068;8.658;2023-06-22T01:13:03;99903.97;;;28.55;43.05
8637;BME280;4356;49.068;8.658;2023-06-22T01:15:36;99907.56;;;28.55;43.30
8637;BME280;4356;49.068;8.658;2023-06-22T01:18:04;99913.09;;;28.50;42.96
8637;BME280;4356;49.068;8.658;2023-06-22T01:20:30;99909.22;;;28.51;43.36
8637;BME280;4356;49.068;8.658;2023-06-22T01:26:08;99910.06;;;28.52;43.09
8637;BME280;4356;49.068;8.658;2023-06-22T01:28:45;99910.31;;;28.50;43.19
8637;BME280;4356;49.068;8.658;2023-06-22T01:31:14;99899.84;;;28.47;43.31
8637;BME280;4356;49.068;8.658;2023-06-22T01:33:43;99908.44;;;28.46;43.29
8637;BME280;4356;49.068;8.658;2023-06-22T01:36:09;99913.97;;;28.46;42.96
8637;BME280;4356;49.068;8.658;2023-06-22T01:38:35;99905.66;;;28.46;43.33
8637;BME280;4356;49.068;8.658;2023-06-22T01:41:02;99922.56;;;28.44;43.10
8637;BME280;4356;49.068;8.658;2023-06-22T01:43:28;99932.78;;;28.43;43.35
8637;BME280;4356;49.068;8.658;2023-06-22T01:45:54;99933.66;;;28.39;43.14
8637;BME280;4356;49.068;8.658;2023-06-22T01:48:21;99934.44;;;28.39;43.33
8637;BME280;4356;49.068;8.658;2023-06-22T01:50:47;99929.47;;;28.41;43.18
8637;BME280;4356;49.068;8.658;2023-06-22T01:53:13;99925.34;;;28.39;43.32
8637;BME280;4356;49.068;8.658;2023-06-22T01:55:38;99938.34;;;28.38;43.42
8637;BME280;4356;49.068;8.658;2023-06-22T01:58:04;99930.34;;;28.37;43.29
8637;BME280;4356;49.068;8.658;2023-06-22T02:00:33;99923.44;;;28.34;43.57
8637;BME280;4356;49.068;8.658;2023-06-22T02:03:05;99924.81;;;28.37;43.26
8637;BME280;4356;49.068;8.658;2023-06-22T02:05:38;99910.75;;;28.33;43.24
8637;BME280;4356;49.068;8.658;2023-06-22T02:08:07;99920.66;;;28.34;43.29
8637;BME280;4356;49.068;8.658;2023-06-22T02:10:35;99919.28;;;28.32;43.36
8637;BME280;4356;49.068;8.658;2023-06-22T02:13:03;99913.25;;;28.30;43.17
8637;BME280;4356;49.068;8.658;2023-06-22T02:15:30;99906.59;;;28.31;43.17
8637;BME280;4356;49.068;8.658;2023-06-22T02:17:56;99898.59;;;28.29;43.13
8637;BME280;4356;49.068;8.658;2023-06-22T02:20:21;99887.59;;;28.24;43.48
8637;BME280;4356;49.068;8.658;2023-06-22T02:22:48;99895.28;;;28.27;43.45
8637;BME280;4356;49.068;8.658;2023-06-22T02:25:14;99901.13;;;28.21;43.42
8637;BME280;4356;49.068;8.658;2023-06-22T02:27:39;99895.88;;;28.24;43.41
8637;BME280;4356;49.068;8.658;2023-06-22T02:30:07;99910.50;;;28.25;43.38
8637;BME280;4356;49.068;8.658;2023-06-22T02:32:33;99904.72;;;28.21;43.52
8637;BME280;4356;49.068;8.658;2023-06-22T02:34:59;99911.91;;;28.22;43.48
8637;BME280;4356;49.068;8.658;2023-06-22T02:37:24;99896.19;;;28.18;43.49
8637;BME280;4356;49.068;8.658;2023-06-22T02:39:50;99893.97;;;28.20;43.49
8637;BME280;4356;49.068;8.658;2023-06-22T02:42:15;99894.78;;;28.20;43.29
8637;BME280;4356;49.068;8.658;2023-06-22T02:44:45;99886.53;;;28.15;43.48
8637;BME280;4356;49.068;8.658;2023-06-22T02:47:11;99870.81;;;28.11;43.32
8637;BME280;4356;49.068;8.658;2023-06-22T02:49:36;99879.88;;;28.16;43.48
8637;BME280;4356;49.068;8.658;2023-06-22T02:52:02;99876.59;;;28.14;43.48
8637;BME280;4356;49.068;8.658;2023-06-22T02:54:27;99868.03;;;28.11;43.43
8637;BME280;4356;49.068;8.658;2023-06-22T02:56:52;99878.25;;;28.10;43.41
8637;BME280;4356;49.068;8.658;2023-06-22T02:59:18;99865.06;;;28.02;43.43
8637;BME280;4356;49.068;8.658;2023-06-22T03:01:48;99867.22;;;28.10;43.56
8637;BME280;4356;49.068;8.658;2023-06-22T03:04:14;99871.69;;;28.06;43.76
8637;BME280;4356;49.068;8.658;2023-06-22T03:06:40;99857.31;;;28.04;43.53
8637;BME280;4356;49.068;8.658;2023-06-22T03:09:06;99874.44;;;28.06;43.49
8637;BME280;4356;49.068;8.658;2023-06-22T03:11:33;99859.78;;;28.06;43.37
8637;BME280;4356;49.068;8.658;2023-06-22T03:13:59;99856.78;;;28.02;43.54
8637;BME280;4356;49.068;8.658;2023-06-22T03:16:24;99860.09;;;28.04;43.73
8637;BME280;4356;49.068;8.658;2023-06-22T03:18:50;99844.91;;;28.02;43.47
8637;BME280;4356;49.068;8.658;2023-06-22T03:21:15;99849.88;;;28.00;43.50
8637;BME280;4356;49.068;8.658;2023-06-22T03:23:42;99844.34;;;28.00;43.53
8637;BME280;4356;49.068;8.658;2023-06-22T03:26:09;99844.66;;;27.98;43.87
8637;BME280;4356;49.068;8.658;2023-06-22T03:28:34;99858.47;;;27.98;43.44
8637;BME280;4356;49.068;8.658;2023-06-22T03:30:59;99852.94;;;27.98;43.55
8637;BME280;4356;49.068;8.658;2023-06-22T03:33:25;99856.00;;;27.92;43.74
8637;BME280;4356;49.068;8.658;2023-06-22T03:35:53;99848.78;;;27.96;43.50
8637;BME280;4356;49.068;8.658;2023-06-22T03:38:19;99828.38;;;27.87;43.55
8637;BME280;4356;49.068;8.658;2023-06-22T03:40:44;99849.38;;;27.88;43.55
8637;BME280;4356;49.068;8.658;2023-06-22T03:43:09;99858.50;;;27.93;43.69
8637;BME280;4356;49.068;8.658;2023-06-22T03:45:35;99853.78;;;27.94;43.50
8637;BME280;4356;49.068;8.658;2023-06-22T03:48:01;99838.06;;;27.84;43.68
8637;BME280;4356;49.068;8.658;2023-06-22T03:50:27;99843.06;;;27.82;43.57
8637;BME280;4356;49.068;8.658;2023-06-22T03:52:52;99836.44;;;27.78;43.69
8637;BME280;4356;49.068;8.658;2023-06-22T03:55:19;99829.81;;;27.79;43.83
8637;BME280;4356;49.068;8.658;2023-06-22T03:57:45;99844.69;;;27.88;43.61
8637;BME280;4356;49.068;8.658;2023-06-22T04:00:11;99835.84;;;27.81;43.51
8637;BME280;4356;49.068;8.658;2023-06-22T04:02:37;99851.34;;;27.82;43.66
8637;BME280;4356;49.068;8.658;2023-06-22T04:05:02;99845.25;;;27.85;43.59
8637;BME280;4356;49.068;8.658;2023-06-22T04:07:28;99836.13;;;27.85;43.62
8637;BME280;4356;49.068;8.658;2023-06-22T04:09:53;99836.41;;;27.83;43.75
8637;BME280;4356;49.068;8.658;2023-06-22T04:12:18;99817.16;;;27.73;43.62
8637;BME280;4356;49.068;8.658;2023-06-22T04:14:44;99816.84;;;27.75;43.74
8637;BME280;4356;49.068;8.658;2023-06-22T04:17:09;99836.69;;;27.82;43.96
8637;BME280;4356;49.068;8.658;2023-06-22T04:19:34;99834.78;;;27.82;43.78
8637;BME280;4356;49.068;8.658;2023-06-22T04:22:00;99823.44;;;27.84;43.65
8637;BME280;4356;49.068;8.658;2023-06-22T04:24:25;99805.53;;;27.76;43.44
8637;BME280;4356;49.068;8.658;2023-06-22T04:26:51;99814.91;;;27.80;43.54
8637;BME280;4356;49.068;8.658;2023-06-22T04:29:19;99805.53;;;27.76;43.85
8637;BME280;4356;49.068;8.658;2023-06-22T04:31:45;99796.16;;;27.72;43.85
8637;BME280;4356;49.068;8.658;2023-06-22T04:34:13;99796.94;;;27.78;43.68
8637;BME280;4356;49.068;8.658;2023-06-22T04:36:41;99810.50;;;27.79;43.55
8637;BME280;4356;49.068;8.658;2023-06-22T04:39:08;99784.06;;;27.63;43.76
8637;BME280;4356;49.068;8.658;2023-06-22T04:41:40;99798.66;;;27.74;43.85
8637;BME280;4356;49.068;8.658;2023-06-22T04:44:16;99807.50;;;27.71;43.85
8637;BME280;4356;49.068;8.658;2023-06-22T04:49:20;99825.69;;;27.77;43.74
8637;BME280;4356;49.068;8.658;2023-06-22T04:51:46;99814.69;;;27.72;43.65
8637;BME280;4356;49.068;8.658;2023-06-22T04:54:11;99814.63;;;27.77;43.94
8637;BME280;4356;49.068;8.658;2023-06-22T04:56:36;99787.38;;;27.65;43.61
8637;BME280;4356;49.068;8.658;2023-06-22T04:59:03;99805.81;;;27.75;43.74
8637;BME280;4356;49.068;8.658;2023-06-22T05:01:28;99808.28;;;27.76;43.66
8637;BME280;4356;49.068;8.658;2023-06-22T05:03:56;99800.84;;;27.77;43.87
8637;BME280;4356;49.068;8.658;2023-06-22T05:06:23;99789.81;;;27.72;44.04
8637;BME280;4356;49.068;8.658;2023-06-22T05:08:52;99783.19;;;27.73;43.85
8637;BME280;4356;49.068;8.658;2023-06-22T05:11:18;99788.41;;;27.74;43.68
8637;BME280;4356;49.068;8.658;2023-06-22T05:13:43;99771.34;;;27.67;43.57
8637;BME280;4356;49.068;8.658;2023-06-22T05:16:09;99787.03;;;27.77;43.64
8637;BME280;4356;49.068;8.658;2023-06-22T05:18:34;99786.19;;;27.76;43.72
8637;BME280;4356;49.068;8.658;2023-06-22T05:21:00;99771.84;;;27.74;43.70
8637;BME280;4356;49.068;8.658;2023-06-22T05:23:25;99779.84;;;27.76;43.70
8637;BME280;4356;49.068;8.658;2023-06-22T05:25:51;99788.66;;;27.78;43.71
8637;BME280;4356;49.068;8.658;2023-06-22T05:28:16;99765.28;;;27.65;43.95
8637;BME280;4356;49.068;8.658;2023-06-22T05:30:42;99786.19;;;27.76;43.57
8637;BME280;4356;49.068;8.658;2023-06-22T05:33:07;99771.03;;;27.69;43.47
8637;BME280;4356;49.068;8.658;2023-06-22T05:35:32;99777.91;;;27.76;43.87
8637;BME280;4356;49.068;8.658;2023-06-22T05:37:58;99774.59;;;27.74;44.43
8637;BME280;4356;49.068;8.658;2023-06-22T05:40:23;99778.50;;;27.73;45.28
8637;BME280;4356;49.068;8.658;2023-06-22T05:42:48;99769.94;;;27.70;45.31
8637;BME280;4356;49.068;8.658;2023-06-22T05:45:14;99774.09;;;27.67;45.42
8637;BME280;4356;49.068;8.658;2023-06-22T05:47:39;99783.47;;;27.71;45.79
8637;BME280;4356;49.068;8.658;2023-06-22T05:50:05;99777.69;;;27.68;45.77
8637;BME280;4356;49.068;8.658;2023-06-22T05:52:33;99778.25;;;27.70;45.83
8637;BME280;4356;49.068;8.658;2023-06-22T05:54:59;99776.84;;;27.67;46.28
8637;BME280;4356;49.068;8.658;2023-06-22T05:57:27;99768.31;;;27.64;46.28
8637;BME280;4356;49.068;8.658;2023-06-22T05:59:52;99771.59;;;27.71;46.45
8637;BME280;4356;49.068;8.658;2023-06-22T06:02:19;99769.13;;;27.69;46.70
8637;BME280;4356;49.068;8.658;2023-06-22T06:04:44;99766.66;;;27.68;46.69
8637;BME280;4356;49.068;8.658;2023-06-22T06:07:10;99779.88;;;27.71;46.83
8637;BME280;4356;49.068;8.658;2023-06-22T06:09:35;99777.41;;;27.69;46.73
8637;BME280;4356;49.068;8.658;2023-06-22T06:12:00;99775.19;;;27.71;46.95
8637;BME280;4356;49.068;8.658;2023-06-22T06:14:28;99774.34;;;27.71;47.37
8637;BME280;4356;49.068;8.658;2023-06-22T06:16:53;99779.31;;;27.74;47.42
8637;BME280;4356;49.068;8.658;2023-06-22T06:19:19;99775.72;;;27.73;47.19
8637;BME280;4356;49.068;8.658;2023-06-22T06:21:44;99761.16;;;27.63;47.63
8637;BME280;4356;49.068;8.658;2023-06-22T06:24:09;99794.47;;;27.76;47.75
8637;BME280;4356;49.068;8.658;2023-06-22T06:26:35;99783.44;;;27.76;47.77
8637;BME280;4356;49.068;8.658;2023-06-22T06:29:01;99786.75;;;27.78;47.79
8637;BME280;4356;49.068;8.658;2023-06-22T06:31:27;99776.81;;;27.77;47.58
8637;BME280;4356;49.068;8.658;2023-06-22T06:33:53;99759.16;;;27.73;47.61
8637;BME280;4356;49.068;8.658;2023-06-22T06:36:19;99764.06;;;27.81;47.88
8637;BME280;4356;49.068;8.658;2023-06-22T06:38:44;99757.44;;;27.82;47.75
8637;BME280;4356;49.068;8.658;2023-06-22T06:41:13;99748.06;;;27.78;47.73
8637;BME280;4356;49.068;8.658;2023-06-22T06:43:38;99746.69;;;27.81;47.63
8637;BME280;4356;49.068;8.658;2023-06-22T06:46:04;99745.81;;;27.85;47.72
8637;BME280;4356;49.068;8.658;2023-06-22T06:48:29;99732.28;;;27.84;47.74
8637;BME280;4356;49.068;8.658;2023-06-22T06:50:54;99739.44;;;27.90;47.86
8637;BME280;4356;49.068;8.658;2023-06-22T06:53:20;99729.19;;;27.90;47.35
8637;BME280;4356;49.068;8.658;2023-06-22T06:55:45;99725.94;;;27.88;47.62
8637;BME280;4356;49.068;8.658;2023-06-22T06:58:11;99732.25;;;27.94;47.59
8637;BME280;4356;49.068;8.658;2023-06-22T07:00:38;99729.47;;;27.99;47.38
8637;BME280;4356;49.068;8.658;2023-06-22T07:03:04;99726.41;;;28.00;47.88
8637;BME280;4356;49.068;8.658;2023-06-22T07:05:30;99736.88;;;28.03;47.57
8637;BME280;4356;49.068;8.658;2023-06-22T07:07:55;99720.03;;;28.00;47.86
8637;BME280;4356;49.068;8.658;2023-06-22T07:10:20;99726.88;;;28.07;47.56
8637;BME280;4356;49.068;8.658;2023-06-22T07:12:46;99729.06;;;28.10;47.77
8637;BME280;4356;49.068;8.658;2023-06-22T07:15:11;99735.13;;;28.12;47.62
8637;BME280;4356;49.068;8.658;2023-06-22T07:17:38;99730.69;;;28.16;48.00
8637;BME280;4356;49.068;8.658;2023-06-22T07:20:07;99725.69;;;28.18;47.94
8637;BME280;4356;49.068;8.658;2023-06-22T07:22:41;99724.00;;;28.22;48.04
8637;BME280;4356;49.068;8.658;2023-06-22T07:25:07;99711.28;;;28.21;47.89
8637;BME280;4356;49.068;8.658;2023-06-22T07:27:43;99724.25;;;28.26;48.07
8637;BME280;4356;49.068;8.658;2023-06-22T07:30:09;99719.78;;;28.30;48.23
8637;BME280;4356;49.068;8.658;2023-06-22T07:32:35;99703.72;;;28.32;48.17
8637;BME280;4356;49.068;8.658;2023-06-22T07:35:00;99694.91;;;28.30;48.32
8637;BME280;4356;49.068;8.658;2023-06-22T07:37:27;99715.53;;;28.37;48.11
8637;BME280;4356;49.068;8.658;2023-06-22T07:39:53;99707.78;;;28.39;48.05
8637;BME280;4356;49.068;8.658;2023-06-22T07:42:23;99693.41;;;28.42;48.27
8637;BME280;4356;49.068;8.658;2023-06-22T07:44:49;99687.28;;;28.46;48.20
8637;BME280;4356;49.068;8.658;2023-06-22T07:47:16;99678.69;;;28.47;48.13
8637;BME280;4356;49.068;8.658;2023-06-22T07:49:43;99676.47;;;28.49;47.95
8637;BME280;4356;49.068;8.658;2023-06-22T07:52:08;99681.69;;;28.51;48.16
8637;BME280;4356;49.068;8.658;2023-06-22T07:54:34;99694.91;;;28.59;47.95
8637;BME280;4356;49.068;8.658;2023-06-22T07:56:59;99689.69;;;28.57;48.21
8637;BME280;4356;49.068;8.658;2023-06-22T07:59:24;99697.38;;;28.60;48.03
8637;BME280;4356;49.068;8.658;2023-06-22T08:01:50;99689.91;;;28.61;47.68
8637;BME280;4356;49.068;8.658;2023-06-22T08:04:15;99681.63;;;28.61;47.73
8637;BME280;4356;49.068;8.658;2023-06-22T08:06:41;99678.56;;;28.62;47.88
8637;BME280;4356;49.068;8.658;2023-06-22T08:09:06;99697.50;;;28.74;47.71
8637;BME280;4356;49.068;8.658;2023-06-22T08:11:32;99692.50;;;28.76;47.80
8637;BME280;4356;49.068;8.658;2023-06-22T08:13:57;99703.47;;;28.81;47.39
8637;BME280;4356;49.068;8.658;2023-06-22T08:16:24;99697.69;;;28.82;47.72
8637;BME280;4356;49.068;8.658;2023-06-22T08:18:49;99698.44;;;28.88;47.41
8637;BME280;4356;49.068;8.658;2023-06-22T08:21:14;99704.47;;;28.90;47.09
8637;BME280;4356;49.068;8.658;2023-06-22T08:23:40;99700.38;;;28.87;47.31
8637;BME280;4356;49.068;8.658;2023-06-22T08:26:06;99717.13;;;28.96;46.93
8637;BME280;4356;49.068;8.658;2023-06-22T08:28:31;99700.09;;;28.89;46.95
8637;BME280;4356;49.068;8.658;2023-06-22T08:30:56;99728.66;;;29.03;47.22
8637;BME280;4356;49.068;8.658;2023-06-22T08:33:22;99738.34;;;29.05;47.20
8637;BME280;4356;49.068;8.658;2023-06-22T08:35:57;99740.50;;;29.08;46.75
8637;BME280;4356;49.068;8.658;2023-06-22T08:38:23;99742.66;;;29.16;46.71
8637;BME280;4356;49.068;8.658;2023-06-22T08:40:48;99754.25;;;29.18;46.43
8637;BME280;4356;49.068;8.658;2023-06-22T08:43:14;99772.19;;;29.21;46.55
8637;BME280;4356;49.068;8.658;2023-06-22T08:45:39;99778.78;;;29.25;46.26
8637;BME280;4356;49.068;8.658;2023-06-22T08:48:05;99810.00;;;29.30;46.25
8637;BME280;4356;49.068;8.658;2023-06-22T08:50:30;99779.84;;;29.29;46.16
8637;BME280;4356;49.068;8.658;2023-06-22T08:52:56;99768.19;;;29.32;45.93
8637;BME280;4356;49.068;8.658;2023-06-22T08:55:23;99747.97;;;29.31;45.76
8637;BME280;4356;49.068;8.658;2023-06-22T08:57:49;99722.50;;;29.34;45.72
8637;BME280;4356;49.068;8.658;2023-06-22T09:00:14;99709.75;;;29.33;45.48
8637;BME280;4356;49.068;8.658;2023-06-22T09:02:44;99698.91;;;29.37;45.27
8637;BME280;4356;49.068;8.658;2023-06-22T09:05:10;99680.06;;;29.39;45.09
8637;BME280;4356;49.068;8.658;2023-06-22T09:07:36;99657.16;;;29.33;45.42
8637;BME280;4356;49.068;8.658;2023-06-22T09:10:01;99655.97;;;29.39;45.22
8637;BME280;4356;49.068;8.658;2023-06-22T09:12:29;99659.25;;;29.42;45.10
8637;BME280;4356;49.068;8.658;2023-06-22T09:14:55;99665.03;;;29.45;44.92
8637;BME280;4356;49.068;8.658;2023-06-22T09:17:22;99659.19;;;29.47;45.19
8637;BME280;4356;49.068;8.658;2023-06-22T09:19:47;99668.63;;;29.46;45.21
8637;BME280;4356;49.068;8.658;2023-06-22T09:22:14;99684.31;;;29.50;45.16
8637;BME280;4356;49.068;8.658;2023-06-22T09:24:39;99706.47;;;29.50;45.23
8637;BME280;4356;49.068;8.658;2023-06-22T09:27:05;99699.75;;;29.56;45.25
8637;BME280;4356;49.068;8.658;2023-06-22T09:29:31;99667.13;;;29.53;45.10
8637;BME280;4356;49.068;8.658;2023-06-22T09:31:59;99686.72;;;29.57;44.90
8637;BME280;4356;49.068;8.658;2023-06-22T09:34:25;99693.19;;;29.71;45.09
8637;BME280;4356;49.068;8.658;2023-06-22T09:36:50;99695.34;;;29.74;44.74
8637;BME280;4356;49.068;8.658;2023-06-22T09:39:20;99673.41;;;29.77;44.67
8637;BME280;4356;49.068;8.658;2023-06-22T09:41:45;99674.44;;;29.81;44.73
8637;BME280;4356;49.068;8.658;2023-06-22T09:44:11;99655.16;;;29.76;44.69
8637;BME280;4356;49.068;8.658;2023-06-22T09:46:36;99660.59;;;29.81;44.39
8637;BME280;4356;49.068;8.658;2023-06-22T09:49:01;99656.31;;;29.89;44.37
8637;BME280;4356;49.068;8.658;2023-06-22T09:51:27;99658.16;;;29.93;44.51
8637;BME280;4356;49.068;8.658;2023-06-22T09:53:52;99663.31;;;30.00;44.12
8637;BME280;4356;49.068;8.658;2023-06-22T09:56:19;99640.94;;;29.96;44.46
8637;BME280;4356;49.068;8.658;2023-06-22T09:58:46;99637.56;;;29.99;44.17
8637;BME280;4356;49.068;8.658;2023-06-22T10:01:13;99635.72;;;30.08;44.13
8637;BME280;4356;49.068;8.658;2023-06-22T10:03:41;99627.63;;;30.12;44.18
8637;BME280;4356;49.068;8.658;2023-06-22T10:06:07;99620.66;;;30.14;44.22
8637;BME280;4356;49.068;8.658;2023-06-22T10:08:33;99608.94;;;30.17;44.08
8637;BME280;4356;49.068;8.658;2023-06-22T10:10:59;99601.69;;;30.21;43.92
8637;BME280;4356;49.068;8.658;2023-06-22T10:13:24;99600.53;;;30.22;43.87
8637;BME280;4356;49.068;8.658;2023-06-22T10:15:50;99603.63;;;30.21;43.71
8637;BME280;4356;49.068;8.658;2023-06-22T10:18:17;99612.69;;;30.26;43.63
8637;BME280;4356;49.068;8.658;2023-06-22T10:20:44;99615.66;;;30.30;43.87
8637;BME280;4356;49.068;8.658;2023-06-22T10:23:09;99609.50;;;30.33;43.71
8637;BME280;4356;49.068;8.658;2023-06-22T10:25:34;99598.41;;;30.33;43.36
8637;BME280;4356;49.068;8.658;2023-06-22T10:28:00;99598.94;;;30.35;43.58
8637;BME280;4356;49.068;8.658;2023-06-22T10:30:25;99598.66;;;30.37;43.65
8637;BME280;4356;49.068;8.658;2023-06-22T10:32:51;99606.34;;;30.40;43.41
8637;BME280;4356;49.068;8.658;2023-06-22T10:35:16;99605.19;;;30.41;43.22
8637;BME280;4356;49.068;8.658;2023-06-22T10:37:46;99590.59;;;30.35;43.25
8637;BME280;4356;49.068;8.658;2023-06-22T10:40:13;99591.03;;;30.42;43.24
8637;BME280;4356;49.068;8.658;2023-06-22T10:42:39;99598.75;;;30.45;43.39
8637;BME280;4356;49.068;8.658;2023-06-22T10:45:05;99593.72;;;30.47;43.52
8637;BME280;4356;49.068;8.658;2023-06-22T10:47:30;99592.56;;;30.48;43.37
8637;BME280;4356;49.068;8.658;2023-06-22T10:49:56;99585.72;;;30.46;43.74
8637;BME280;4356;49.068;8.658;2023-06-22T10:52:21;99577.88;;;30.48;43.78
8637;BME280;4356;49.068;8.658;2023-06-22T10:54:46;99567.53;;;30.40;43.64
8637;BME280;4356;49.068;8.658;2023-06-22T10:57:12;99582.94;;;30.46;43.67
8637;BME280;4356;49.068;8.658;2023-06-22T10:59:37;99597.22;;;30.53;43.56
8637;BME280;4356;49.068;8.658;2023-06-22T11:02:03;99594.13;;;30.54;43.54
8637;BME280;4356;49.068;8.658;2023-06-22T11:04:28;99591.03;;;30.56;43.58
8637;BME280;4356;49.068;8.658;2023-06-22T11:06:53;99594.00;;;30.59;43.49
8637;BME280;4356;49.068;8.658;2023-06-22T11:09:19;99587.31;;;30.60;43.43
8637;BME280;4356;49.068;8.658;2023-06-22T11:11:50;99597.09;;;30.58;43.52
8637;BME280;4356;49.068;8.658;2023-06-22T11:14:18;99588.97;;;30.61;43.26
8637;BME280;4356;49.068;8.658;2023-06-22T11:16:44;99593.56;;;30.66;43.18
8637;BME280;4356;49.068;8.658;2023-06-22T11:19:09;99577.25;;;30.64;43.26
8637;BME280;4356;49.068;8.658;2023-06-22T11:21:35;99581.88;;;30.69;43.52
8637;BME280;4356;49.068;8.658;2023-06-22T11:24:00;99571.69;;;30.64;43.45
8637;BME280;4356;49.068;8.658;2023-06-22T11:26:26;99573.34;;;30.65;43.29
8637;BME280;4356;49.068;8.658;2023-06-22T11:28:55;99583.72;;;30.73;43.31
8637;BME280;4356;49.068;8.658;2023-06-22T11:31:23;99582.28;;;30.76;43.07
8637;BME280;4356;49.068;8.658;2023-06-22T11:33:48;99576.94;;;30.79;43.23
8637;BME280;4356;49.068;8.658;2023-06-22T11:36:14;99571.91;;;30.81;43.24
8637;BME280;4356;49.068;8.658;2023-06-22T11:38:39;99564.91;;;30.84;43.38
8637;BME280;4356;49.068;8.658;2023-06-22T11:41:06;99562.13;;;30.84;43.46
8637;BME280;4356;49.068;8.658;2023-06-22T11:43:32;99555.16;;;30.86;43.41
8637;BME280;4356;49.068;8.658;2023-06-22T11:45:57;99556.50;;;30.89;43.04
8637;BME280;4356;49.068;8.658;2023-06-22T11:48:24;99541.09;;;30.83;43.36
8637;BME280;4356;49.068;8.658;2023-06-22T11:50:49;99540.56;;;30.81;43.38
8637;BME280;4356;49.068;8.658;2023-06-22T11:53:15;99547.97;;;30.85;43.70
8637;BME280;4356;49.068;8.658;2023-06-22T11:55:43;99563.34;;;30.91;43.62
8637;BME280;4356;49.068;8.658;2023-06-22T11:58:08;99564.50;;;30.90;43.75
8637;BME280;4356;49.068;8.658;2023-06-22T12:00:37;99561.22;;;30.88;43.65
8637;BME280;4356;49.068;8.658;2023-06-22T12:03:03;99560.06;;;30.89;43.35
8637;BME280;4356;49.068;8.658;2023-06-22T12:05:28;99569.53;;;30.88;43.33
8637;BME280;4356;49.068;8.658;2023-06-22T12:07:54;99573.16;;;30.89;43.90
8637;BME280;4356;49.068;8.658;2023-06-22T12:10:21;99579.22;;;30.91;43.55
8637;BME280;4356;49.068;8.658;2023-06-22T12:12:46;99563.78;;;30.85;43.44
8637;BME280;4356;49.068;8.658;2023-06-22T12:15:15;99574.97;;;30.93;43.54
8637;BME280;4356;49.068;8.658;2023-06-22T12:17:40;99571.47;;;30.88;43.51
8637;BME280;4356;49.068;8.658;2023-06-22T12:20:06;99573.66;;;30.91;43.43
8637;BME280;4356;49.068;8.658;2023-06-22T12:22:33;99573.53;;;30.96;43.79
8637;BME280;4356;49.068;8.658;2023-06-22T12:24:58;99570.06;;;30.90;43.84
8637;BME280;4356;49.068;8.658;2023-06-22T12:27:24;99587.41;;;30.96;43.62
8637;BME280;4356;49.068;8.658;2023-06-22T12:29:50;99590.00;;;30.92;43.39
8637;BME280;4356;49.068;8.658;2023-06-22T12:32:15;99602.00;;;31.01;43.33
8637;BME280;4356;49.068;8.658;2023-06-22T12:34:42;99599.72;;;31.03;43.17
8637;BME280;4356;49.068;8.658;2023-06-22T12:37:07;99598.72;;;30.99;43.26
8637;BME280;4356;49.068;8.658;2023-06-22T12:39:33;99581.22;;;30.99;43.25
8637;BME280;4356;49.068;8.658;2023-06-22T12:41:59;99579.59;;;30.98;43.01
8637;BME280;4356;49.068;8.658;2023-06-22T12:44:24;99562.13;;;30.97;43.13
8637;BME280;4356;49.068;8.658;2023-06-22T12:46:49;99579.16;;;31.04;42.80
8637;BME280;4356;49.068;8.658;2023-06-22T12:49:15;99587.75;;;31.16;42.77
8637;BME280;4356;49.068;8.658;2023-06-22T12:51:41;99573.69;;;31.13;42.78
8637;BME280;4356;49.068;8.658;2023-06-22T12:54:10;99566.69;;;31.15;43.09
8637;BME280;4356;49.068;8.658;2023-06-22T12:56:36;99553.72;;;31.11;43.04
8637;BME280;4356;49.068;8.658;2023-06-22T12:59:03;99586.38;;;31.27;42.99
8637;BME280;4356;49.068;8.658;2023-06-22T13:01:32;99577.25;;;31.27;42.78
8637;BME280;4356;49.068;8.658;2023-06-22T13:04:03;99574.94;;;31.29;42.82
8637;BME280;4356;49.068;8.658;2023-06-22T13:06:29;99558.09;;;31.25;42.86
8637;BME280;4356;49.068;8.658;2023-06-22T13:08:54;99569.84;;;31.36;43.16
8637;BME280;4356;49.068;8.658;2023-06-22T13:11:20;99562.41;;;31.31;43.17
8637;BME280;4356;49.068;8.658;2023-06-22T13:13:45;99563.31;;;31.41;43.02
8637;BME280;4356;49.068;8.658;2023-06-22T13:16:11;99555.41;;;31.34;43.02
8637;BME280;4356;49.068;8.658;2023-06-22T13:18:37;99550.41;;;31.36;42.78
8637;BME280;4356;49.068;8.658;2023-06-22T13:21:03;99553.22;;;31.45;42.62
8637;BME280;4356;49.068;8.658;2023-06-22T13:23:29;99543.44;;;31.47;42.64